Opelika, Alabama
Current Conditions -  °F | °C
As of 4:15 AM on Wednesday 26 Nov 2014 (Local Time) from KAUO Reporting Station
Broken Clouds Broken Clouds  
Wind Chill: 37°   Ceiling: 11000
Heat Index: 43°   Visibility: 10mi
Dew Point: 28°   Wind: 10mph
Humidity: 57%   Direction: 300°WNW
Pressure: 30.08"   Gusts: NA
Location:  32.65°N, 85.38°W
Report Text: KAUO 261015Z AUTO 30009KT 10SM BKN110 06/M02 A3008 RMK AO1
Loading
Personal Weather Stations






























Interactive Weather Map New forecast layout! Learn more

10-Day Weather Forecast

Advertisements
Track Severe Weather on mobile